Orense, Portugal

4:50 PM WET en Diciembre 11, 2017 (GMT +0000)
Cimadevila - Lobios | | Change Station

Alt 1598 ft 41.90 °N, 8.09 °W | Updated 6 seconds ago

Parcialmente nublado
Parcialmente nublado
42.6 ° F
Sensación térmica 43 ° F
N
2.3
Viento Variable Viento desde NNE
Gusts 2.3 mph

Hoy
Alta -- | Baja -- ° F
--% Posibilidad de precipitaciones
Ayer
Alta -- | Baja -- ° F
Precip. -- pul
Presión 29.68 pul
Visibilidad 6.2 Millas
Nubes Baja 3600 ft
Vientos helados 43 ° F
Punto de rocío 38 ° F
Humedad 82%
Precipitaciones 0.89 pul
Espesor de la nieve No disponible.
7:51 AM 5:00 PM
Cuarto menguante, 36% visible
METAR LEVX 111630Z 33008KT 290V010 9999 FEW036 09/02 Q1005 TEMPO 3000 SHRA SCT020CB
Presión 29.68 pul
Visibilidad 6.2 Millas
Nubes Baja 3600 ft
Vientos helados 43 ° F
Punto de rocío 38 ° F
Humedad 82%
Precipitaciones 0.89 pul
Espesor de la nieve No disponible.
7:51 AM 5:00 PM
Cuarto menguante, 36% visible
METAR LEVX 111630Z 33008KT 290V010 9999 FEW036 09/02 Q1005 TEMPO 3000 SHRA SCT020CB

Get Severe Weather Alerts

Thanks for signing up!

Be on the lookout for a verification email in your inbox.

You'll start receiving the daily forecast at 6 AM.

×

10-Day Weather Forecast

×

Almanac

Astronomía

Dec. 11, 2017 Salida Puesta
Hora real
Crepúsculo civil
Crepúsculo náutico
Crepúsculo astronómico
Luna
Horas de luz
Horas de luz
Tomorrow will be .
, % of the Moon is Illuminated

Extremos de hoy

Máximos del país Bajas del país

Community

WunderPhotos

Category 6

Welcome to Category 6. This is the collective home for Weather Underground's featured writeups by Dr. Jeff Masters (right), Bob Henson (left), Chris Burt, and other regular contributors.

Nearby

Calidad del aire

  Calidad del aire Índice AQ Contaminante
Not available.

Grosos de nieve

Estación Profundido Altura

Actividad de terremotos

Ciudad Distance Mag. Tiempo y dato
Magnitud mínima muestra es 2,5.

Temperaturas de aguas costeras

Lugar Temperatura

Stations

Estaciones meteorológicas cercanas

Ubicación de la estación Temp. Vientos helados Punto de rocío Humedad Viento Precip. Alt Actualizado Tipo